sensor_id;sensor_type;location;lat;lon;timestamp;pressure;altitude;pressure_sealevel;temperature;humidity
46534;BME280;32260;52.008;4.752;2022-11-23T00:00:36;99532.75;;;9.86;74.93
46534;BME280;32260;52.008;4.752;2022-11-23T00:03:03;99542.47;;;9.86;75.11
46534;BME280;32260;52.008;4.752;2022-11-23T00:05:30;99537.19;;;9.86;74.84
46534;BME280;32260;52.008;4.752;2022-11-23T00:07:56;99542.59;;;9.83;74.98
46534;BME280;32260;52.008;4.752;2022-11-23T00:10:22;99551.44;;;9.82;74.95
46534;BME280;32260;52.008;4.752;2022-11-23T00:12:49;99547.88;;;9.83;75.05
46534;BME280;32260;52.008;4.752;2022-11-23T00:15:15;99547.03;;;9.82;75.11
46534;BME280;32260;52.008;4.752;2022-11-23T00:17:41;99554.91;;;9.84;75.09
46534;BME280;32260;52.008;4.752;2022-11-23T00:20:08;99559.56;;;9.77;75.44
46534;BME280;32260;52.008;4.752;2022-11-23T00:22:35;99564.78;;;9.79;75.39
46534;BME280;32260;52.008;4.752;2022-11-23T00:25:01;99567.44;;;9.79;75.18
46534;BME280;32260;52.008;4.752;2022-11-23T00:27:27;99578.88;;;9.79;75.61
46534;BME280;32260;52.008;4.752;2022-11-23T00:29:53;99580.53;;;9.82;75.51
46534;BME280;32260;52.008;4.752;2022-11-23T00:32:19;99572.50;;;9.85;75.39
46534;BME280;32260;52.008;4.752;2022-11-23T00:34:45;99580.22;;;9.91;75.37
46534;BME280;32260;52.008;4.752;2022-11-23T00:37:11;99583.91;;;9.87;75.70
46534;BME280;32260;52.008;4.752;2022-11-23T00:39:37;99582.84;;;9.91;75.87
46534;BME280;32260;52.008;4.752;2022-11-23T00:42:04;99580.78;;;9.99;75.75
46534;BME280;32260;52.008;4.752;2022-11-23T00:44:30;99588.66;;;10.01;75.61
46534;BME280;32260;52.008;4.752;2022-11-23T00:46:56;99587.69;;;10.03;75.69
46534;BME280;32260;52.008;4.752;2022-11-23T00:49:22;99586.81;;;10.03;75.55
46534;BME280;32260;52.008;4.752;2022-11-23T00:51:48;99582.25;;;10.07;75.48
46534;BME280;32260;52.008;4.752;2022-11-23T00:54:14;99582.25;;;10.07;75.47
46534;BME280;32260;52.008;4.752;2022-11-23T00:56:40;99584.81;;;10.10;75.62
46534;BME280;32260;52.008;4.752;2022-11-23T00:59:07;99592.59;;;10.13;75.11
46534;BME280;32260;52.008;4.752;2022-11-23T01:01:34;99593.66;;;10.09;75.79
46534;BME280;32260;52.008;4.752;2022-11-23T01:04:04;99590.88;;;10.12;75.83
46534;BME280;32260;52.008;4.752;2022-11-23T01:06:33;99590.72;;;10.16;75.70
46534;BME280;32260;52.008;4.752;2022-11-23T01:09:02;99586.97;;;10.22;75.29
46534;BME280;32260;52.008;4.752;2022-11-23T01:11:30;99593.19;;;10.21;75.79
46534;BME280;32260;52.008;4.752;2022-11-23T01:13:57;99593.19;;;10.21;75.46
46534;BME280;32260;52.008;4.752;2022-11-23T01:16:28;99591.41;;;10.22;75.55
46534;BME280;32260;52.008;4.752;2022-11-23T01:18:57;99593.34;;;10.16;75.77
46534;BME280;32260;52.008;4.752;2022-11-23T01:21:25;99600.28;;;10.20;75.60
46534;BME280;32260;52.008;4.752;2022-11-23T01:23:52;99601.22;;;10.18;75.98
46534;BME280;32260;52.008;4.752;2022-11-23T01:26:18;99595.84;;;10.21;75.66
46534;BME280;32260;52.008;4.752;2022-11-23T01:28:44;99596.81;;;10.18;75.92
46534;BME280;32260;52.008;4.752;2022-11-23T01:31:14;99602.78;;;10.24;75.54
46534;BME280;32260;52.008;4.752;2022-11-23T01:33:41;99598.47;;;10.21;75.82
46534;BME280;32260;52.008;4.752;2022-11-23T01:36:14;99604.59;;;10.23;75.71
46534;BME280;32260;52.008;4.752;2022-11-23T01:38:41;99606.28;;;10.24;75.50
46534;BME280;32260;52.008;4.752;2022-11-23T01:41:11;99601.94;;;10.23;75.67
46534;BME280;32260;52.008;4.752;2022-11-23T01:43:38;99606.44;;;10.21;75.78
46534;BME280;32260;52.008;4.752;2022-11-23T01:46:04;99612.63;;;10.20;75.79
46534;BME280;32260;52.008;4.752;2022-11-23T01:48:38;99611.59;;;10.24;75.56
46534;BME280;32260;52.008;4.752;2022-11-23T01:51:09;99603.84;;;10.19;75.57
46534;BME280;32260;52.008;4.752;2022-11-23T01:53:36;99607.34;;;10.20;75.52
46534;BME280;32260;52.008;4.752;2022-11-23T01:56:05;99619.91;;;10.15;75.38
46534;BME280;32260;52.008;4.752;2022-11-23T01:58:36;99615.28;;;10.20;75.27
46534;BME280;32260;52.008;4.752;2022-11-23T02:01:04;99620.81;;;10.14;75.12
46534;BME280;32260;52.008;4.752;2022-11-23T02:03:31;99618.97;;;10.16;75.32
46534;BME280;32260;52.008;4.752;2022-11-23T02:06:02;99620.81;;;10.14;75.27
46534;BME280;32260;52.008;4.752;2022-11-23T02:08:29;99614.69;;;10.12;75.21
46534;BME280;32260;52.008;4.752;2022-11-23T02:10:56;99613.91;;;10.10;75.11
46534;BME280;32260;52.008;4.752;2022-11-23T02:13:24;99618.47;;;10.06;74.88
46534;BME280;32260;52.008;4.752;2022-11-23T02:15:53;99626.47;;;10.04;74.91
46534;BME280;32260;52.008;4.752;2022-11-23T02:18:22;99616.88;;;10.00;74.82
46534;BME280;32260;52.008;4.752;2022-11-23T02:20:50;99622.25;;;9.99;75.02
46534;BME280;32260;52.008;4.752;2022-11-23T02:23:31;99625.72;;;10.01;74.79
46534;BME280;32260;52.008;4.752;2022-11-23T02:26:26;99623.97;;;10.00;74.83
46534;BME280;32260;52.008;4.752;2022-11-23T02:28:59;99623.34;;;9.93;74.74
46534;BME280;32260;52.008;4.752;2022-11-23T02:31:27;99626.31;;;9.84;74.96
46534;BME280;32260;52.008;4.752;2022-11-23T02:33:53;99624.13;;;9.71;75.01
46534;BME280;32260;52.008;4.752;2022-11-23T02:36:59;99621.31;;;9.76;75.00
46534;BME280;32260;52.008;4.752;2022-11-23T02:39:23;99623.09;;;9.76;74.97
46534;BME280;32260;52.008;4.752;2022-11-23T02:41:53;99630.38;;;9.69;74.90
46534;BME280;32260;52.008;4.752;2022-11-23T02:47:11;99626.59;;;9.76;75.24
46534;BME280;32260;52.008;4.752;2022-11-23T02:49:40;99629.31;;;9.75;75.48
46534;BME280;32260;52.008;4.752;2022-11-23T02:52:07;99621.31;;;9.76;75.49
46534;BME280;32260;52.008;4.752;2022-11-23T02:54:34;99622.00;;;9.81;75.55
46534;BME280;32260;52.008;4.752;2022-11-23T02:57:00;99616.63;;;9.84;75.41
46534;BME280;32260;52.008;4.752;2022-11-23T02:59:26;99627.84;;;9.91;75.37
46534;BME280;32260;52.008;4.752;2022-11-23T03:01:53;99628.81;;;9.88;75.36
46534;BME280;32260;52.008;4.752;2022-11-23T03:04:19;99620.75;;;9.92;75.55
46534;BME280;32260;52.008;4.752;2022-11-23T03:06:45;99621.56;;;9.94;75.76
46534;BME280;32260;52.008;4.752;2022-11-23T03:09:11;99628.41;;;9.99;75.31
46534;BME280;32260;52.008;4.752;2022-11-23T03:11:38;99635.31;;;10.03;75.33
46534;BME280;32260;52.008;4.752;2022-11-23T03:14:04;99632.75;;;10.02;75.32
46534;BME280;32260;52.008;4.752;2022-11-23T03:16:30;99631.63;;;10.08;75.15
46534;BME280;32260;52.008;4.752;2022-11-23T03:18:58;99635.09;;;10.10;75.18
46534;BME280;32260;52.008;4.752;2022-11-23T03:21:25;99633.22;;;10.12;75.03
46534;BME280;32260;52.008;4.752;2022-11-23T03:23:51;99633.34;;;10.09;75.01
46534;BME280;32260;52.008;4.752;2022-11-23T03:26:17;99628.97;;;10.08;74.93
46534;BME280;32260;52.008;4.752;2022-11-23T03:28:43;99633.13;;;10.15;74.86
46534;BME280;32260;52.008;4.752;2022-11-23T03:31:09;99633.97;;;10.15;74.80
46534;BME280;32260;52.008;4.752;2022-11-23T03:33:36;99642.66;;;10.19;74.92
46534;BME280;32260;52.008;4.752;2022-11-23T03:36:02;99651.59;;;10.16;74.95
46534;BME280;32260;52.008;4.752;2022-11-23T03:38:28;99646.94;;;10.23;74.80
46534;BME280;32260;52.008;4.752;2022-11-23T03:40:54;99634.63;;;10.22;74.81
46534;BME280;32260;52.008;4.752;2022-11-23T03:43:20;99637.22;;;10.24;74.69
46534;BME280;32260;52.008;4.752;2022-11-23T03:45:47;99647.72;;;10.25;74.46
46534;BME280;32260;52.008;4.752;2022-11-23T03:48:13;99652.19;;;10.25;74.52
46534;BME280;32260;52.008;4.752;2022-11-23T03:50:39;99647.94;;;10.20;74.71
46534;BME280;32260;52.008;4.752;2022-11-23T03:53:05;99651.19;;;10.27;74.65
46534;BME280;32260;52.008;4.752;2022-11-23T03:55:32;99644.97;;;10.28;74.71
46534;BME280;32260;52.008;4.752;2022-11-23T03:57:59;99643.13;;;10.30;74.66
46534;BME280;32260;52.008;4.752;2022-11-23T04:00:27;99641.47;;;10.28;74.53
46534;BME280;32260;52.008;4.752;2022-11-23T04:02:53;99637.91;;;10.29;74.69
46534;BME280;32260;52.008;4.752;2022-11-23T04:05:20;99639.94;;;10.22;74.53
46534;BME280;32260;52.008;4.752;2022-11-23T04:07:46;99638.94;;;10.25;74.55
46534;BME280;32260;52.008;4.752;2022-11-23T04:10:16;99638.03;;;10.26;74.28
46534;BME280;32260;52.008;4.752;2022-11-23T04:12:43;99643.41;;;10.23;74.38
46534;BME280;32260;52.008;4.752;2022-11-23T04:15:09;99651.13;;;10.29;74.14
46534;BME280;32260;52.008;4.752;2022-11-23T04:17:36;99647.56;;;10.30;74.00
46534;BME280;32260;52.008;4.752;2022-11-23T04:20:03;99644.78;;;10.33;73.91
46534;BME280;32260;52.008;4.752;2022-11-23T04:22:29;99645.66;;;10.33;73.66
46534;BME280;32260;52.008;4.752;2022-11-23T04:24:56;99649.22;;;10.32;73.72
46534;BME280;32260;52.008;4.752;2022-11-23T04:27:22;99637.63;;;10.36;73.61
46534;BME280;32260;52.008;4.752;2022-11-23T04:29:48;99639.34;;;10.38;73.80
46534;BME280;32260;52.008;4.752;2022-11-23T04:32:14;99650.03;;;10.34;73.41
46534;BME280;32260;52.008;4.752;2022-11-23T04:34:40;99650.88;;;10.36;73.56
46534;BME280;32260;52.008;4.752;2022-11-23T04:37:06;99651.88;;;10.32;73.38
46534;BME280;32260;52.008;4.752;2022-11-23T04:39:32;99649.13;;;10.35;73.25
46534;BME280;32260;52.008;4.752;2022-11-23T04:41:58;99644.66;;;10.38;73.09
46534;BME280;32260;52.008;4.752;2022-11-23T04:44:24;99643.13;;;10.30;73.06
46534;BME280;32260;52.008;4.752;2022-11-23T04:46:50;99647.44;;;10.33;72.99
46534;BME280;32260;52.008;4.752;2022-11-23T04:49:17;99648.31;;;10.33;72.68
46534;BME280;32260;52.008;4.752;2022-11-23T04:51:43;99639.44;;;10.36;72.84
46534;BME280;32260;52.008;4.752;2022-11-23T04:54:09;99642.00;;;10.38;72.66
46534;BME280;32260;52.008;4.752;2022-11-23T04:56:35;99648.13;;;10.40;72.47
46534;BME280;32260;52.008;4.752;2022-11-23T04:59:01;99647.44;;;10.33;72.20
46534;BME280;32260;52.008;4.752;2022-11-23T05:01:27;99651.78;;;10.35;72.06
46534;BME280;32260;52.008;4.752;2022-11-23T05:03:53;99641.03;;;10.40;72.21
46534;BME280;32260;52.008;4.752;2022-11-23T05:06:19;99642.81;;;10.40;71.74
46534;BME280;32260;52.008;4.752;2022-11-23T05:08:45;99636.78;;;10.36;71.89
46534;BME280;32260;52.008;4.752;2022-11-23T05:11:11;99644.66;;;10.38;71.63
46534;BME280;32260;52.008;4.752;2022-11-23T05:13:37;99654.53;;;10.32;71.67
46534;BME280;32260;52.008;4.752;2022-11-23T05:16:04;99645.66;;;10.33;72.13
46534;BME280;32260;52.008;4.752;2022-11-23T05:18:30;99658.91;;;10.33;71.28
46534;BME280;32260;52.008;4.752;2022-11-23T05:20:56;99656.25;;;10.33;71.25
46534;BME280;32260;52.008;4.752;2022-11-23T05:23:22;99651.69;;;10.39;71.58
46534;BME280;32260;52.008;4.752;2022-11-23T05:25:48;99653.84;;;10.27;71.22
46534;BME280;32260;52.008;4.752;2022-11-23T05:28:17;99654.88;;;10.23;71.18
46534;BME280;32260;52.008;4.752;2022-11-23T05:30:43;99671.56;;;10.25;71.19
46534;BME280;32260;52.008;4.752;2022-11-23T05:33:10;99667.19;;;10.24;71.03
46534;BME280;32260;52.008;4.752;2022-11-23T05:35:36;99653.84;;;10.27;70.99
46534;BME280;32260;52.008;4.752;2022-11-23T05:38:02;99664.53;;;10.24;71.02
46534;BME280;32260;52.008;4.752;2022-11-23T05:40:28;99658.44;;;10.22;71.12
46534;BME280;32260;52.008;4.752;2022-11-23T05:42:56;99661.88;;;10.24;70.98
46534;BME280;32260;52.008;4.752;2022-11-23T05:45:24;99648.53;;;10.27;71.00
46534;BME280;32260;52.008;4.752;2022-11-23T05:47:51;99655.69;;;10.25;70.98
46534;BME280;32260;52.008;4.752;2022-11-23T05:50:17;99659.38;;;10.21;70.73
46534;BME280;32260;52.008;4.752;2022-11-23T05:52:43;99660.28;;;10.20;70.86
46534;BME280;32260;52.008;4.752;2022-11-23T05:55:10;99652.25;;;10.23;71.10
46534;BME280;32260;52.008;4.752;2022-11-23T05:57:36;99661.16;;;10.20;71.06
46534;BME280;32260;52.008;4.752;2022-11-23T06:00:03;99651.72;;;10.13;70.75
46534;BME280;32260;52.008;4.752;2022-11-23T06:02:30;99655.22;;;10.14;70.78
46534;BME280;32260;52.008;4.752;2022-11-23T06:04:57;99653.50;;;10.13;70.97
46534;BME280;32260;52.008;4.752;2022-11-23T06:07:24;99650.81;;;10.14;71.05
46534;BME280;32260;52.008;4.752;2022-11-23T06:09:50;99646.53;;;10.10;70.93
46534;BME280;32260;52.008;4.752;2022-11-23T06:12:16;99648.31;;;10.10;71.09
46534;BME280;32260;52.008;4.752;2022-11-23T06:14:42;99651.88;;;10.09;71.19
46534;BME280;32260;52.008;4.752;2022-11-23T06:17:08;99652.00;;;10.06;71.23
46534;BME280;32260;52.008;4.752;2022-11-23T06:19:34;99644.09;;;10.04;71.34
46534;BME280;32260;52.008;4.752;2022-11-23T06:22:00;99643.41;;;9.99;71.29
46534;BME280;32260;52.008;4.752;2022-11-23T06:24:26;99647.19;;;9.92;71.18
46534;BME280;32260;52.008;4.752;2022-11-23T06:26:52;99646.63;;;9.83;71.19
46534;BME280;32260;52.008;4.752;2022-11-23T06:29:19;99646.84;;;9.77;71.37
46534;BME280;32260;52.008;4.752;2022-11-23T06:31:45;99640.00;;;9.71;71.25
46534;BME280;32260;52.008;4.752;2022-11-23T06:34:12;99643.81;;;9.63;71.62
46534;BME280;32260;52.008;4.752;2022-11-23T06:36:38;99643.34;;;9.51;71.61
46534;BME280;32260;52.008;4.752;2022-11-23T06:39:05;99648.00;;;9.45;71.82
46534;BME280;32260;52.008;4.752;2022-11-23T06:41:31;99647.38;;;9.36;71.83
46534;BME280;32260;52.008;4.752;2022-11-23T06:43:57;99646.75;;;9.30;71.35
46534;BME280;32260;52.008;4.752;2022-11-23T06:46:23;99645.28;;;9.21;71.82
46534;BME280;32260;52.008;4.752;2022-11-23T06:48:49;99649.88;;;9.14;71.62
46534;BME280;32260;52.008;4.752;2022-11-23T06:51:15;99648.34;;;9.07;71.68
46534;BME280;32260;52.008;4.752;2022-11-23T06:53:41;99645.13;;;8.99;71.73
46534;BME280;32260;52.008;4.752;2022-11-23T06:56:08;99659.56;;;8.87;71.90
46534;BME280;32260;52.008;4.752;2022-11-23T06:58:34;99661.50;;;8.82;72.48
46534;BME280;32260;52.008;4.752;2022-11-23T07:01:03;99671.25;;;8.80;72.62
46534;BME280;32260;52.008;4.752;2022-11-23T07:03:30;99673.94;;;8.78;72.54
46534;BME280;32260;52.008;4.752;2022-11-23T07:05:56;99674.81;;;8.79;73.01
46534;BME280;32260;52.008;4.752;2022-11-23T07:08:22;99682.75;;;8.79;73.11
46534;BME280;32260;52.008;4.752;2022-11-23T07:10:48;99695.22;;;8.73;73.29
46534;BME280;32260;52.008;4.752;2022-11-23T07:13:15;99690.75;;;8.76;73.09
46534;BME280;32260;52.008;4.752;2022-11-23T07:15:41;99698.41;;;8.83;73.37
46534;BME280;32260;52.008;4.752;2022-11-23T07:18:08;99691.38;;;8.84;72.94
46534;BME280;32260;52.008;4.752;2022-11-23T07:20:35;99691.47;;;8.81;72.85
46534;BME280;32260;52.008;4.752;2022-11-23T07:23:02;99690.56;;;8.82;73.57
46534;BME280;32260;52.008;4.752;2022-11-23T07:25:30;99693.88;;;8.88;73.43
46534;BME280;32260;52.008;4.752;2022-11-23T07:27:58;99698.94;;;8.95;73.51
46534;BME280;32260;52.008;4.752;2022-11-23T07:30:26;99711.22;;;8.97;73.39
46534;BME280;32260;52.008;4.752;2022-11-23T07:32:52;99705.78;;;9.02;73.35
46534;BME280;32260;52.008;4.752;2022-11-23T07:35:19;99708.16;;;9.10;73.26
46534;BME280;32260;52.008;4.752;2022-11-23T07:37:46;99718.66;;;9.13;72.78
46534;BME280;32260;52.008;4.752;2022-11-23T07:40:12;99715.81;;;9.19;73.17
46534;BME280;32260;52.008;4.752;2022-11-23T07:42:38;99721.09;;;9.19;72.89
46534;BME280;32260;52.008;4.752;2022-11-23T07:45:05;99720.06;;;9.23;72.88
46534;BME280;32260;52.008;4.752;2022-11-23T07:47:32;99723.53;;;9.25;72.87
46534;BME280;32260;52.008;4.752;2022-11-23T07:49:58;99718.13;;;9.28;72.70
46534;BME280;32260;52.008;4.752;2022-11-23T07:52:24;99726.94;;;9.29;72.92
46534;BME280;32260;52.008;4.752;2022-11-23T07:54:50;99727.78;;;9.29;72.72
46534;BME280;32260;52.008;4.752;2022-11-23T07:57:16;99728.47;;;9.36;72.86
46534;BME280;32260;52.008;4.752;2022-11-23T07:59:42;99734.41;;;9.43;73.01
46534;BME280;32260;52.008;4.752;2022-11-23T08:02:10;99725.38;;;9.50;72.93
46534;BME280;32260;52.008;4.752;2022-11-23T08:04:37;99730.59;;;9.51;73.07
46534;BME280;32260;52.008;4.752;2022-11-23T08:07:04;99734.72;;;9.60;72.53
46534;BME280;32260;52.008;4.752;2022-11-23T08:09:31;99741.59;;;9.66;72.51
46534;BME280;32260;52.008;4.752;2022-11-23T08:11:57;99733.53;;;9.69;72.51
46534;BME280;32260;52.008;4.752;2022-11-23T08:14:24;99731.53;;;9.76;72.70
46534;BME280;32260;52.008;4.752;2022-11-23T08:16:50;99731.44;;;9.79;72.44
46534;BME280;32260;52.008;4.752;2022-11-23T08:19:17;99730.41;;;9.83;72.36
46534;BME280;32260;52.008;4.752;2022-11-23T08:21:44;99730.31;;;9.86;72.52
46534;BME280;32260;52.008;4.752;2022-11-23T08:24:11;99731.22;;;9.85;72.62
46534;BME280;32260;52.008;4.752;2022-11-23T08:26:37;99733.88;;;9.85;72.83
46534;BME280;32260;52.008;4.752;2022-11-23T08:29:04;99734.91;;;9.81;72.72
46534;BME280;32260;52.008;4.752;2022-11-23T08:31:31;99739.72;;;9.95;72.63
46534;BME280;32260;52.008;4.752;2022-11-23T08:33:57;99738.84;;;9.94;72.43
46534;BME280;32260;52.008;4.752;2022-11-23T08:36:23;99742.22;;;9.99;72.19
46534;BME280;32260;52.008;4.752;2022-11-23T08:38:49;99741.16;;;10.03;71.98
46534;BME280;32260;52.008;4.752;2022-11-23T08:41:17;99742.00;;;10.06;71.95
46534;BME280;32260;52.008;4.752;2022-11-23T08:43:47;99742.91;;;10.04;71.44
46534;BME280;32260;52.008;4.752;2022-11-23T08:46:13;99739.09;;;10.12;71.05
46534;BME280;32260;52.008;4.752;2022-11-23T08:48:39;99743.22;;;10.20;71.41
46534;BME280;32260;52.008;4.752;2022-11-23T08:51:05;99735.00;;;10.28;71.26
46534;BME280;32260;52.008;4.752;2022-11-23T08:53:33;99736.50;;;10.35;70.48
46534;BME280;32260;52.008;4.752;2022-11-23T08:56:01;99738.84;;;10.45;70.09
46534;BME280;32260;52.008;4.752;2022-11-23T08:58:27;99724.00;;;10.41;68.97
46534;BME280;32260;52.008;4.752;2022-11-23T09:00:53;99716.72;;;10.46;68.90
46534;BME280;32260;52.008;4.752;2022-11-23T09:03:19;99728.09;;;10.48;68.29
46534;BME280;32260;52.008;4.752;2022-11-23T09:05:46;99715.75;;;10.48;68.54
46534;BME280;32260;52.008;4.752;2022-11-23T09:08:13;99711.44;;;10.46;68.00
46534;BME280;32260;52.008;4.752;2022-11-23T09:10:41;99722.13;;;10.43;68.13
46534;BME280;32260;52.008;4.752;2022-11-23T09:13:07;99705.69;;;10.33;67.92
46534;BME280;32260;52.008;4.752;2022-11-23T09:15:33;99713.59;;;10.34;67.79
46534;BME280;32260;52.008;4.752;2022-11-23T09:18:00;99697.94;;;10.28;67.94
46534;BME280;32260;52.008;4.752;2022-11-23T09:20:26;99697.25;;;10.23;68.01
46534;BME280;32260;52.008;4.752;2022-11-23T09:22:53;99690.09;;;10.25;67.76
46534;BME280;32260;52.008;4.752;2022-11-23T09:25:20;99685.72;;;10.24;67.56
46534;BME280;32260;52.008;4.752;2022-11-23T09:27:47;99680.53;;;10.21;67.45
46534;BME280;32260;52.008;4.752;2022-11-23T09:30:14;99674.50;;;10.17;67.42
46534;BME280;32260;52.008;4.752;2022-11-23T09:32:40;99663.06;;;10.17;67.15
46534;BME280;32260;52.008;4.752;2022-11-23T09:35:07;99649.00;;;10.15;67.59
46534;BME280;32260;52.008;4.752;2022-11-23T09:37:33;99646.22;;;10.18;67.72
46534;BME280;32260;52.008;4.752;2022-11-23T09:39:59;99650.84;;;10.13;67.28
46534;BME280;32260;52.008;4.752;2022-11-23T09:45:26;99659.53;;;10.16;66.87
46534;BME280;32260;52.008;4.752;2022-11-23T09:48:13;99651.88;;;10.09;66.48
46534;BME280;32260;52.008;4.752;2022-11-23T09:50:49;99657.81;;;10.15;66.51
46534;BME280;32260;52.008;4.752;2022-11-23T09:53:24;99652.34;;;10.20;66.67
46534;BME280;32260;52.008;4.752;2022-11-23T09:55:55;99650.69;;;10.17;66.50
46534;BME280;32260;52.008;4.752;2022-11-23T09:58:26;99654.06;;;10.21;66.61
46534;BME280;32260;52.008;4.752;2022-11-23T10:03:35;99666.47;;;10.20;66.52
46534;BME280;32260;52.008;4.752;2022-11-23T10:08:56;99670.06;;;10.18;66.32
46534;BME280;32260;52.008;4.752;2022-11-23T10:11:37;99661.63;;;10.32;66.56
46534;BME280;32260;52.008;4.752;2022-11-23T10:14:19;99666.91;;;10.32;66.29
46534;BME280;32260;52.008;4.752;2022-11-23T10:19:54;99671.41;;;10.30;65.56
46534;BME280;32260;52.008;4.752;2022-11-23T10:22:30;99674.09;;;10.28;65.55
46534;BME280;32260;52.008;4.752;2022-11-23T10:25:00;99676.00;;;10.25;65.69
46534;BME280;32260;52.008;4.752;2022-11-23T10:27:29;99675.94;;;10.26;65.64
46534;BME280;32260;52.008;4.752;2022-11-23T10:29:57;99669.72;;;10.27;65.64
46534;BME280;32260;52.008;4.752;2022-11-23T10:32:46;99670.34;;;10.34;65.68
46534;BME280;32260;52.008;4.752;2022-11-23T10:35:22;99669.50;;;10.33;65.98
46534;BME280;32260;52.008;4.752;2022-11-23T10:38:07;99661.81;;;10.51;65.88
46534;BME280;32260;52.008;4.752;2022-11-23T10:40:35;99669.56;;;10.56;65.57
46534;BME280;32260;52.008;4.752;2022-11-23T10:43:25;99679.72;;;10.44;64.92
46534;BME280;32260;52.008;4.752;2022-11-23T10:46:22;99688.97;;;10.56;65.13
46534;BME280;32260;52.008;4.752;2022-11-23T10:48:50;99683.31;;;10.42;65.54
46534;BME280;32260;52.008;4.752;2022-11-23T10:51:27;99673.53;;;10.44;65.59
46534;BME280;32260;52.008;4.752;2022-11-23T10:53:59;99677.06;;;10.44;65.36
46534;BME280;32260;52.008;4.752;2022-11-23T10:56:26;99674.69;;;10.36;64.65
46534;BME280;32260;52.008;4.752;2022-11-23T10:58:52;99673.69;;;10.41;63.98
46534;BME280;32260;52.008;4.752;2022-11-23T11:01:22;99662.88;;;10.45;64.37
46534;BME280;32260;52.008;4.752;2022-11-23T11:03:53;99661.19;;;10.44;63.78
46534;BME280;32260;52.008;4.752;2022-11-23T11:09:03;99626.69;;;10.46;64.49
46534;BME280;32260;52.008;4.752;2022-11-23T11:11:33;99619.91;;;10.39;64.07
46534;BME280;32260;52.008;4.752;2022-11-23T11:14:19;99626.47;;;10.52;64.42
46534;BME280;32260;52.008;4.752;2022-11-23T11:16:49;99610.44;;;10.55;64.03
46534;BME280;32260;52.008;4.752;2022-11-23T11:19:33;99602.56;;;10.76;64.33
46534;BME280;32260;52.008;4.752;2022-11-23T11:22:01;99596.25;;;10.78;64.29
46534;BME280;32260;52.008;4.752;2022-11-23T11:24:35;99588.72;;;10.90;63.78
46534;BME280;32260;52.008;4.752;2022-11-23T11:27:06;99587.41;;;11.00;63.29
46534;BME280;32260;52.008;4.752;2022-11-23T11:32:29;99576.84;;;11.21;63.37
46534;BME280;32260;52.008;4.752;2022-11-23T11:35:23;99573.16;;;11.44;63.40
46534;BME280;32260;52.008;4.752;2022-11-23T11:37:53;99566.03;;;11.46;63.09
46534;BME280;32260;52.008;4.752;2022-11-23T11:40:30;99565.91;;;11.49;62.32
46534;BME280;32260;52.008;4.752;2022-11-23T11:46:21;99573.22;;;11.63;62.26
46534;BME280;32260;52.008;4.752;2022-11-23T11:48:53;99561.00;;;11.59;62.35
46534;BME280;32260;52.008;4.752;2022-11-23T11:51:27;99566.19;;;11.62;62.47
46534;BME280;32260;52.008;4.752;2022-11-23T11:54:02;99565.06;;;11.68;62.16
46534;BME280;32260;52.008;4.752;2022-11-23T11:56:34;99561.47;;;11.69;62.35
46534;BME280;32260;52.008;4.752;2022-11-23T11:59:27;99553.84;;;11.81;62.30
46534;BME280;32260;52.008;4.752;2022-11-23T12:13:31;99542.00;;;11.89;61.41
46534;BME280;32260;52.008;4.752;2022-11-23T12:16:21;99540.13;;;11.91;60.87
46534;BME280;32260;52.008;4.752;2022-11-23T12:19:18;99528.41;;;11.96;61.06
46534;BME280;32260;52.008;4.752;2022-11-23T12:22:17;99527.00;;;11.88;60.92
46534;BME280;32260;52.008;4.752;2022-11-23T12:27:58;99522.19;;;11.77;62.15
46534;BME280;32260;52.008;4.752;2022-11-23T12:34:35;99521.34;;;11.76;61.86
46534;BME280;32260;52.008;4.752;2022-11-23T12:36:29;99515.16;;;11.76;61.99
46534;BME280;32260;52.008;4.752;2022-11-23T12:39:29;99515.16;;;11.76;61.63
46534;BME280;32260;52.008;4.752;2022-11-23T12:42:08;99515.88;;;11.79;62.33
46534;BME280;32260;52.008;4.752;2022-11-23T12:44:48;99509.56;;;11.82;62.36
46534;BME280;32260;52.008;4.752;2022-11-23T12:47:41;99512.28;;;11.80;61.71
46534;BME280;32260;52.008;4.752;2022-11-23T12:53:30;99521.06;;;11.82;62.11
46534;BME280;32260;52.008;4.752;2022-11-23T12:58:37;99529.50;;;11.72;62.00
46534;BME280;32260;52.008;4.752;2022-11-23T13:01:09;99526.94;;;11.70;62.81
46534;BME280;32260;52.008;4.752;2022-11-23T13:14:42;99545.16;;;11.38;65.73
46534;BME280;32260;52.008;4.752;2022-11-23T13:18:06;99554.22;;;11.32;66.46
46534;BME280;32260;52.008;4.752;2022-11-23T13:23:01;99553.31;;;11.13;67.39
46534;BME280;32260;52.008;4.752;2022-11-23T13:25:28;99551.22;;;10.99;68.94
46534;BME280;32260;52.008;4.752;2022-11-23T13:27:56;99549.06;;;10.88;69.97
46534;BME280;32260;52.008;4.752;2022-11-23T13:35:58;99561.25;;;10.70;70.67
46534;BME280;32260;52.008;4.752;2022-11-23T13:38:26;99564.72;;;10.72;70.30
46534;BME280;32260;52.008;4.752;2022-11-23T13:40:53;99555.47;;;10.60;71.78
46534;BME280;32260;52.008;4.752;2022-11-23T13:43:29;99550.81;;;10.67;71.41
46534;BME280;32260;52.008;4.752;2022-11-23T13:46:20;99566.28;;;10.56;72.21
46534;BME280;32260;52.008;4.752;2022-11-23T13:48:50;99566.31;;;10.54;71.95
46534;BME280;32260;52.008;4.752;2022-11-23T13:51:27;99569.91;;;10.53;72.74
46534;BME280;32260;52.008;4.752;2022-11-23T13:53:59;99577.16;;;10.48;72.83
46534;BME280;32260;52.008;4.752;2022-11-23T13:56:32;99570.34;;;10.42;72.88
46534;BME280;32260;52.008;4.752;2022-11-23T14:04:37;99564.75;;;10.26;73.88
46534;BME280;32260;52.008;4.752;2022-11-23T14:07:12;99569.94;;;10.29;73.68
46534;BME280;32260;52.008;4.752;2022-11-23T14:12:46;99584.09;;;10.28;73.79
46534;BME280;32260;52.008;4.752;2022-11-23T14:15:17;99581.75;;;10.20;74.14
46534;BME280;32260;52.008;4.752;2022-11-23T14:18:39;99591.16;;;10.28;74.37
46534;BME280;32260;52.008;4.752;2022-11-23T14:21:06;99585.94;;;10.26;74.53
46534;BME280;32260;52.008;4.752;2022-11-23T14:24:01;99580.69;;;10.25;74.68
46534;BME280;32260;52.008;4.752;2022-11-23T14:29:40;99565.88;;;10.20;74.75
46534;BME280;32260;52.008;4.752;2022-11-23T14:40:32;99593.66;;;10.09;75.33